Terminal Aerodrome Forecast
Issued by NWS

Home | Current Version | Previous Version | Text Only | Print | Product List | Glossary On
Versions: 1 2 3 4 5 6 7 8 9 10 11 12 13 14 15 16 17 18 19 20 21 22 23 24 25 26 27 28
000
FTUS43 KDMX 250937 AAA
TAFOTM
TAF AMD
KOTM 250937Z 2510/2606 12012G18KT P6SM -TSRA SCT035CB BKN060 OVC120
     FM251300 14014KT P6SM SCT050 BKN120
     FM251700 17015G22KT P6SM SCT035 BKN150
     FM260100 18010KT P6SM FEW035=

USA.gov is the U.S. government's official web portal to all federal, state and local government web resources and services.